Terminal Aerodrome Forecast
Issued by NWS

Home | Current Version | Previous Version | Text Only | Print | Product List | Glossary On
Versions: 1 2 3 4 5 6 7 8 9 10 11 12 13
000
FTPA31 PHFO 271120
TAFHKO
TAF
PHKO 271120Z 2712/2812 08007KT P6SM FEW035 FEW050
     FM271900 21010KT P6SM SCT060
     FM280400 VRB06KT P6SM FEW030 BKN050
      TEMPO 2804/2806 06010G15KT
     FM280700 09006KT P6SM FEW030 BKN050=

USA.gov is the U.S. government's official web portal to all federal, state and local government web resources and services.